Time;durP1;ratioP1;P1;durP2;ratioP2;P2;SDS_P1;SDS_P2;PMS_P1;PMS_P2;Temp;Humidity;BMP_temperature;BMP_pressure;BME280_temperature;BME280_humidity;BME280_pressure;Samples;Min_cycle;Max_cycle;Signal;HPM_P1;HPM_P2
2021/10/08 00:00:36;;;;;;;20.20;10.57;;;16.80;82.40;;;;;;5039662;28;20135;-83
2021/10/08 00:03:02;;;;;;;17.80;9.23;;;16.70;82.30;;;;;;5040342;28;20083;-84
2021/10/08 00:05:27;;;;;;;16.75;9.75;;;16.60;82.40;;;;;;5036287;28;20061;-84
2021/10/08 00:07:57;;;;;;;18.27;9.63;;;16.50;82.60;;;;;;5037287;28;20044;-83
2021/10/08 00:10:23;;;;;;;16.85;10.90;;;16.50;82.60;;;;;;5036281;28;20472;-83
2021/10/08 00:12:48;;;;;;;15.73;9.38;;;16.50;82.50;;;;;;5036125;28;20385;-83
2021/10/08 00:15:14;;;;;;;18.50;9.65;;;16.40;82.40;;;;;;5037071;28;20082;-84
2021/10/08 00:17:40;;;;;;;21.75;9.77;;;16.40;82.30;;;;;;5036092;28;20081;-84
2021/10/08 00:20:06;;;;;;;17.35;8.40;;;16.40;82.30;;;;;;5037423;28;20472;-84
2021/10/08 00:22:32;;;;;;;20.38;9.15;;;16.30;82.40;;;;;;5035987;28;20125;-84
2021/10/08 00:25:00;;;;;;;13.15;8.90;;;16.30;82.30;;;;;;5056614;28;20544;-84
2021/10/08 00:27:25;;;;;;;15.27;9.23;;;16.30;82.30;;;;;;5074753;28;20449;-84
2021/10/08 00:29:51;;;;;;;15.60;8.23;;;16.30;82.20;;;;;;5075749;28;20029;-83
2021/10/08 00:32:17;;;;;;;16.08;9.13;;;16.30;82.10;;;;;;5044256;28;20025;-84
2021/10/08 00:34:42;;;;;;;16.10;8.30;;;16.30;82.10;;;;;;5035846;28;20033;-84
2021/10/08 00:37:08;;;;;;;14.23;8.40;;;16.20;82.00;;;;;;5037369;28;20081;-84
2021/10/08 00:39:34;;;;;;;18.40;8.52;;;16.20;82.00;;;;;;5035773;28;20071;-84
2021/10/08 00:42:09;;;;;;;20.42;8.55;;;16.10;82.00;;;;;;5036469;28;20021;-84
2021/10/08 00:44:35;;;;;;;15.35;8.20;;;16.10;81.90;;;;;;5035586;28;20079;-84
2021/10/08 00:47:10;;;;;;;15.95;7.65;;;16.10;81.90;;;;;;5034927;28;20026;-84
2021/10/08 00:49:35;;;;;;;14.75;7.93;;;16.00;81.80;;;;;;5053355;28;20060;-84
2021/10/08 00:52:01;;;;;;;14.27;7.50;;;16.00;81.80;;;;;;5055337;28;20040;-84
2021/10/08 00:54:27;;;;;;;12.13;7.32;;;16.00;81.70;;;;;;5039480;28;20083;-84
2021/10/08 00:56:53;;;;;;;10.32;6.25;;;16.00;81.50;;;;;;5035476;28;20113;-84
2021/10/08 00:59:19;;;;;;;12.23;7.25;;;15.90;81.60;;;;;;5036631;28;20030;-84
2021/10/08 01:01:45;;;;;;;13.85;7.55;;;15.90;81.50;;;;;;5035391;28;20522;-84
2021/10/08 01:04:13;;;;;;;13.32;7.40;;;15.90;81.50;;;;;;5034446;28;20021;-84
2021/10/08 01:06:38;;;;;;;14.00;7.82;;;15.90;81.40;;;;;;5036508;28;20036;-84
2021/10/08 01:09:04;;;;;;;13.68;6.80;;;15.90;81.60;;;;;;5035537;28;20434;-84
2021/10/08 01:11:30;;;;;;;14.68;7.07;;;15.80;81.40;;;;;;5036848;28;20026;-84
2021/10/08 01:13:56;;;;;;;15.10;6.82;;;15.90;81.40;;;;;;5035025;28;20507;-84
2021/10/08 01:16:22;;;;;;;14.60;7.53;;;15.90;81.40;;;;;;5036352;28;20029;-84
2021/10/08 01:18:48;;;;;;;9.63;6.30;;;15.90;81.40;;;;;;5035142;28;20022;-84
2021/10/08 01:21:14;;;;;;;9.70;6.47;;;16.00;81.20;;;;;;5035253;28;20029;-84
2021/10/08 01:23:39;;;;;;;9.93;6.35;;;16.00;81.20;;;;;;5039957;28;20041;-84
2021/10/08 01:26:05;;;;;;;9.63;5.82;;;16.00;81.10;;;;;;5055791;28;20029;-84
2021/10/08 01:28:31;;;;;;;9.15;5.90;;;16.10;81.10;;;;;;5036380;28;20041;-84
2021/10/08 01:30:56;;;;;;;9.85;5.90;;;16.00;81.00;;;;;;5035390;28;20021;-84
2021/10/08 01:33:35;;;;;;;10.32;6.13;;;16.10;80.90;;;;;;5035929;28;20033;-84
2021/10/08 01:36:00;;;;;;;8.45;5.55;;;16.10;80.80;;;;;;5037004;28;20040;-84
2021/10/08 01:38:26;;;;;;;8.63;5.68;;;16.10;80.70;;;;;;5055640;28;20391;-84
2021/10/08 01:40:52;;;;;;;10.75;6.00;;;16.10;80.50;;;;;;5054698;28;20029;-84
2021/10/08 01:43:28;;;;;;;7.90;5.20;;;16.10;80.30;;;;;;5036136;28;20030;-84
2021/10/08 01:45:53;;;;;;;10.68;6.20;;;16.10;80.40;;;;;;5036361;28;20021;-84
2021/10/08 01:48:19;;;;;;;11.27;5.88;;;16.00;80.40;;;;;;5036261;28;20064;-84
2021/10/08 01:50:45;;;;;;;10.20;6.15;;;16.00;80.10;;;;;;5049482;28;20040;-83
2021/10/08 01:53:18;;;;;;;12.07;5.75;;;16.00;80.40;;;;;;5056509;28;20502;-84
2021/10/08 01:55:43;;;;;;;12.02;5.07;;;16.00;80.40;;;;;;5056546;28;20029;-84
2021/10/08 01:58:09;;;;;;;7.95;5.45;;;16.00;80.50;;;;;;5055291;28;20036;-84
2021/10/08 02:00:35;;;;;;;10.57;4.90;;;16.00;80.50;;;;;;5039646;28;20503;-83
2021/10/08 02:03:10;;;;;;;12.93;6.10;;;16.10;80.50;;;;;;5040428;28;20032;-83
2021/10/08 02:05:36;;;;;;;8.23;4.88;;;16.00;80.20;;;;;;5040655;28;20025;-84
2021/10/08 02:08:01;;;;;;;6.55;4.68;;;16.00;80.20;;;;;;5040284;28;20036;-84
2021/10/08 02:10:27;;;;;;;12.75;5.10;;;16.00;79.90;;;;;;5040258;28;20032;-84
2021/10/08 02:13:02;;;;;;;9.82;4.93;;;16.00;80.10;;;;;;5039897;28;20029;-84
2021/10/08 02:15:27;;;;;;;7.05;4.80;;;16.00;80.10;;;;;;5039626;28;20033;-84
2021/10/08 02:17:53;;;;;;;11.65;4.80;;;15.90;80.10;;;;;;5040021;28;20029;-84
2021/10/08 02:20:19;;;;;;;6.60;4.50;;;15.90;80.30;;;;;;5040027;28;20057;-84
2021/10/08 02:22:54;;;;;;;11.75;4.85;;;16.00;79.90;;;;;;5039843;28;20036;-84
2021/10/08 02:25:20;;;;;;;5.05;4.13;;;15.90;79.90;;;;;;5072895;28;20032;-84
2021/10/08 02:27:45;;;;;;;6.72;3.92;;;16.00;80.00;;;;;;5067567;28;20033;-83
2021/10/08 02:30:29;;;;;;;6.13;4.03;;;16.00;80.00;;;;;;5039519;28;20026;-84
2021/10/08 02:32:54;;;;;;;5.55;4.35;;;16.00;80.00;;;;;;5039186;28;20040;-83
2021/10/08 02:35:20;;;;;;;7.07;4.45;;;16.00;79.90;;;;;;5039518;28;20025;-83
2021/10/08 02:37:53;;;;;;;8.70;4.50;;;16.00;79.90;;;;;;5057869;28;20094;-84
2021/10/08 02:40:19;;;;;;;11.45;4.78;;;16.00;80.10;;;;;;5058323;28;20129;-84
2021/10/08 02:42:45;;;;;;;8.40;4.22;;;16.00;80.10;;;;;;5047708;28;20021;-84
2021/10/08 02:45:11;;;;;;;6.82;4.70;;;15.90;80.40;;;;;;5039392;28;20025;-84
2021/10/08 02:47:37;;;;;;;6.80;4.88;;;15.90;80.20;;;;;;5039289;28;20050;-84
2021/10/08 02:50:13;;;;;;;9.18;5.15;;;15.90;80.30;;;;;;5039488;28;20036;-84
2021/10/08 02:52:39;;;;;;;7.97;5.07;;;15.90;80.20;;;;;;5039465;28;20060;-84
2021/10/08 02:55:06;;;;;;;9.75;6.15;;;15.80;80.10;;;;;;5041921;28;20025;-84
2021/10/08 02:57:51;;;;;;;8.15;4.85;;;15.90;80.30;;;;;;5048144;28;20446;-84
2021/10/08 03:00:17;;;;;;;9.95;5.05;;;15.90;80.20;;;;;;5037769;28;20515;-84
2021/10/08 03:02:43;;;;;;;7.13;4.88;;;15.90;79.90;;;;;;5038874;28;20025;-83
2021/10/08 03:05:26;;;;;;;7.35;5.18;;;15.90;80.00;;;;;;5039449;28;20051;-84
2021/10/08 03:07:52;;;;;;;7.97;4.93;;;15.90;80.20;;;;;;5039331;28;20070;-84
2021/10/08 03:10:19;;;;;;;9.65;4.30;;;15.90;80.00;;;;;;5037536;28;20434;-83
2021/10/08 03:12:54;;;;;;;7.70;4.38;;;15.90;80.00;;;;;;5038985;28;20495;-84
2021/10/08 03:15:20;;;;;;;8.38;4.60;;;15.90;80.20;;;;;;5038695;28;20028;-84
2021/10/08 03:17:45;;;;;;;7.75;4.28;;;15.90;80.00;;;;;;5038504;28;20034;-84
2021/10/08 03:20:11;;;;;;;9.88;4.00;;;15.80;80.20;;;;;;5038703;28;20080;-84
2021/10/08 03:22:47;;;;;;;9.10;4.30;;;15.90;79.90;;;;;;5050793;28;20092;-84
2021/10/08 03:25:13;;;;;;;5.97;3.75;;;15.80;79.90;;;;;;5070590;28;20028;-84
2021/10/08 03:27:39;;;;;;;6.70;3.78;;;15.90;79.60;;;;;;5078973;28;20028;-84
2021/10/08 03:30:23;;;;;;;6.57;3.45;;;15.80;79.40;;;;;;5075704;28;20020;-84
2021/10/08 03:32:48;;;;;;;4.78;3.53;;;15.80;79.40;;;;;;5038586;28;20068;-84
2021/10/08 03:35:15;;;;;;;7.40;3.50;;;15.80;79.60;;;;;;5038126;28;20033;-84
2021/10/08 03:38:07;;;;;;;6.53;3.33;;;15.80;79.30;;;;;;5037824;28;20029;-84
2021/10/08 03:40:33;;;;;;;5.88;3.13;;;15.80;79.20;;;;;;5038496;28;20025;-84
2021/10/08 03:43:15;;;;;;;6.00;3.15;;;15.90;79.30;;;;;;5037973;28;20021;-84
2021/10/08 03:45:51;;;;;;;9.65;3.58;;;15.90;79.30;;;;;;5036978;28;20029;-84
2021/10/08 03:48:49;;;;;;;8.43;3.38;;;15.90;79.30;;;;;;5055953;28;20154;-84
2021/10/08 03:51:15;;;;;;;4.75;3.15;;;15.80;79.00;;;;;;5043802;28;20167;-84
2021/10/08 03:53:51;;;;;;;5.78;2.92;;;15.80;79.00;;;;;;5038572;28;20530;-84
2021/10/08 03:56:16;;;;;;;2.88;2.30;;;15.80;78.20;;;;;;5037457;28;20029;-84
2021/10/08 03:58:42;;;;;;;8.43;3.17;;;15.90;78.90;;;;;;5037893;28;20033;-84
2021/10/08 04:01:08;;;;;;;6.40;3.40;;;15.80;78.90;;;;;;5038147;28;20492;-84
2021/10/08 04:03:47;;;;;;;8.38;3.17;;;15.90;78.90;;;;;;5037989;28;20059;-84
2021/10/08 04:06:13;;;;;;;5.28;2.97;;;15.80;78.90;;;;;;5038086;28;20117;-84
2021/10/08 04:08:39;;;;;;;5.90;3.03;;;15.80;79.00;;;;;;5038046;28;20057;-84
2021/10/08 04:11:17;;;;;;;5.03;3.20;;;15.80;78.90;;;;;;5041828;28;20415;-83
2021/10/08 04:13:43;;;;;;;11.23;3.17;;;15.70;78.90;;;;;;5037818;28;20037;-84
2021/10/08 04:16:08;;;;;;;10.55;3.17;;;15.70;78.80;;;;;;5037756;28;20036;-85
2021/10/08 04:18:34;;;;;;;6.60;2.80;;;15.80;78.50;;;;;;5037599;28;20109;-84
2021/10/08 04:21:09;;;;;;;6.90;2.83;;;15.80;78.50;;;;;;5035906;28;20097;-86
2021/10/08 04:23:35;;;;;;;6.68;2.92;;;15.70;78.20;;;;;;5036438;28;20408;-80
2021/10/08 04:26:04;;;;;;;4.63;2.83;;;15.70;78.70;;;;;;5074871;28;20021;-85
2021/10/08 04:28:45;;;;;;;5.53;2.45;;;15.70;78.40;;;;;;5076113;28;20076;-80
2021/10/08 04:31:11;;;;;;;5.50;2.53;;;15.70;78.30;;;;;;5058603;28;20117;-80
2021/10/08 04:33:37;;;;;;;4.07;2.70;;;15.60;78.40;;;;;;5035789;28;20039;-78
2021/10/08 04:36:19;;;;;;;7.60;3.00;;;15.50;78.60;;;;;;5035941;28;20136;-79
2021/10/08 04:38:45;;;;;;;4.25;2.72;;;15.50;78.30;;;;;;5035554;28;20029;-79
2021/10/08 04:41:11;;;;;;;4.65;2.83;;;15.40;78.40;;;;;;5035683;28;20025;-79
2021/10/08 04:43:36;;;;;;;6.28;3.60;;;15.30;78.50;;;;;;5035692;28;20108;-79
2021/10/08 05:15:10;;;;;;;5.63;3.00;;;13.00;85.30;;;;;;5153595;27;20479;-86
2021/10/08 05:17:36;;;;;;;9.32;3.40;;;13.10;85.40;;;;;;5130832;28;20035;-80
2021/10/08 05:20:17;;;;;;;;;;;;;;;;;;;;;
2021/10/08 05:22:43;;;;;;;7.57;3.25;;;13.60;84.10;;;;;;5118353;28;20489;-82
2021/10/08 05:25:08;;;;;;;7.13;3.08;;;13.90;83.20;;;;;;5124786;28;20078;-79
2021/10/08 05:27:34;;;;;;;7.45;3.10;;;14.10;82.20;;;;;;5113433;28;20023;-80
2021/10/08 05:30:10;;;;;;;5.25;3.13;;;14.20;81.30;;;;;;5131202;28;20618;-79
2021/10/08 05:32:35;;;;;;;6.25;3.45;;;14.30;80.90;;;;;;5132694;28;20051;-79
2021/10/08 05:35:01;;;;;;;10.27;3.00;;;14.30;80.30;;;;;;5097046;28;20050;-80
2021/10/08 05:37:48;;;;;;;6.25;3.15;;;14.30;79.80;;;;;;5123460;28;20032;-82
2021/10/08 05:40:13;;;;;;;13.57;3.92;;;14.30;80.00;;;;;;5127722;28;20074;-83
2021/10/08 05:42:38;;;;;;;5.32;3.45;;;14.30;79.60;;;;;;5133605;28;20027;-82
2021/10/08 05:45:24;;;;;;;10.63;3.42;;;14.30;79.70;;;;;;5132721;28;20102;-82
2021/10/08 05:47:50;;;;;;;7.65;3.30;;;14.30;79.70;;;;;;5120610;28;20024;-83
2021/10/08 05:50:16;;;;;;;6.75;3.33;;;14.30;79.50;;;;;;5107684;28;20031;-83
2021/10/08 05:53:02;;;;;;;8.02;3.33;;;14.30;79.20;;;;;;5121965;28;20055;-82
2021/10/08 05:55:28;;;;;;;5.43;2.97;;;14.30;79.20;;;;;;5122792;28;20512;-83
2021/10/08 05:57:54;;;;;;;6.72;3.20;;;14.30;79.30;;;;;;5121463;28;20102;-83
2021/10/08 06:00:29;;;;;;;6.63;3.13;;;14.30;79.10;;;;;;5124469;28;20046;-83
2021/10/08 06:02:55;;;;;;;7.13;4.38;;;14.20;79.20;;;;;;5121042;28;20028;-83
2021/10/08 06:05:21;;;;;;;6.45;3.05;;;14.20;79.00;;;;;;5105184;28;20024;-83
2021/10/08 06:08:07;;;;;;;7.07;3.47;;;14.20;79.10;;;;;;5123686;28;20091;-83
2021/10/08 06:10:33;;;;;;;6.90;3.33;;;14.20;79.10;;;;;;5122927;28;20066;-83
2021/10/08 06:12:59;;;;;;;8.38;3.35;;;14.20;79.10;;;;;;5121060;28;20020;-83
2021/10/08 06:15:45;;;;;;;6.30;3.70;;;14.20;79.00;;;;;;5119896;28;20039;-83
2021/10/08 06:18:11;;;;;;;5.30;3.03;;;14.10;79.10;;;;;;5132531;28;20496;-83
2021/10/08 06:20:36;;;;;;;7.60;3.83;;;14.00;79.10;;;;;;5126863;28;20069;-83
2021/10/08 06:23:02;;;;;;;7.07;3.03;;;14.00;79.10;;;;;;5120240;28;20034;-83
2021/10/08 06:25:28;;;;;;;5.00;2.90;;;14.00;79.10;;;;;;5096171;28;20051;-83
2021/10/08 06:27:54;;;;;;;4.43;3.17;;;14.00;79.00;;;;;;5108198;28;20020;-83
2021/10/08 06:30:21;;;;;;;8.65;2.90;;;14.00;79.20;;;;;;5088814;28;20482;-83
2021/10/08 06:32:54;;;;;;;6.20;3.20;;;13.90;79.30;;;;;;5100355;28;20024;-88
2021/10/08 06:42:53;;;;;;;;;;;;;;;;;;;;;
2021/10/08 06:56:33;;;;;;;;;;;;;;;;;;;;;
2021/10/08 06:59:50;;;;;;;;;;;;;;;;;;;;;
2021/10/08 07:06:49;;;;;;;;;;;;;;;;;;;;;
2021/10/08 15:37:36;;;;;;;3.50;1.40;;;20.80;51.40;;;;;;5490890;22;20422;-82
2021/10/08 15:40:44;;;;;;;2.72;1.40;;;20.70;51.70;;;;;;5001560;28;20033;-87
2021/10/08 15:46:31;;;;;;;2.42;1.77;;;20.70;52.40;;;;;;4947961;29;20091;-90
2021/10/08 15:48:59;;;;;;;3.67;1.80;;;20.60;52.20;;;;;;5009497;28;20473;-85
2021/10/08 15:51:29;;;;;;;2.67;1.42;;;20.50;52.70;;;;;;5025305;28;20040;-84
2021/10/08 15:53:55;;;;;;;3.53;1.42;;;20.50;52.20;;;;;;5009486;28;20559;-89
2021/10/08 15:56:21;;;;;;;2.55;1.67;;;20.50;53.00;;;;;;5027807;28;20079;-88
2021/10/08 15:58:51;;;;;;;2.20;1.60;;;20.50;53.50;;;;;;5026964;28;20096;-89
2021/10/08 16:01:17;;;;;;;2.95;1.55;;;20.40;53.30;;;;;;5009405;28;20675;-89
2021/10/08 16:04:03;;;;;;;;;;;;;;;;;;;;;
2021/10/08 16:06:47;;;;;;;2.72;1.60;;;20.30;53.50;;;;;;5025542;28;20022;-88
2021/10/08 16:09:13;;;;;;;3.20;1.65;;;20.30;54.70;;;;;;5024096;28;20033;-87
2021/10/08 16:11:39;;;;;;;4.35;1.58;;;20.20;54.60;;;;;;5024962;28;20109;-87
2021/10/08 16:17:07;;;;;;;4.35;1.98;;;20.10;53.90;;;;;;5018838;28;20049;-89
2021/10/08 16:19:42;;;;;;;3.47;1.65;;;20.00;54.70;;;;;;5026990;28;20071;-86
2021/10/08 16:22:13;;;;;;;3.05;1.50;;;20.00;55.30;;;;;;5011405;28;20043;-89
2021/10/08 16:24:40;;;;;;;4.72;1.70;;;20.00;55.50;;;;;;5025326;28;20036;-85
2021/10/08 16:27:07;;;;;;;6.35;2.03;;;19.90;55.20;;;;;;5028592;28;20026;-86
2021/10/08 16:29:33;;;;;;;3.65;1.85;;;19.80;55.90;;;;;;5027743;28;20021;-86
2021/10/08 16:32:01;;;;;;;5.85;1.65;;;19.80;56.30;;;;;;5025499;28;20361;-85
2021/10/08 16:34:28;;;;;;;2.63;1.55;;;19.80;56.60;;;;;;5008235;28;20065;-86
2021/10/08 16:36:59;;;;;;;2.85;1.80;;;19.70;57.20;;;;;;5020885;28;20042;-85
2021/10/08 16:39:30;;;;;;;4.05;1.83;;;19.60;57.40;;;;;;4998047;28;20032;-85
2021/10/08 16:41:56;;;;;;;3.88;1.90;;;19.50;57.40;;;;;;5013399;28;20026;-86
2021/10/08 16:44:22;;;;;;;3.30;1.67;;;19.50;57.80;;;;;;4998729;28;20025;-85
2021/10/08 16:46:48;;;;;;;2.95;1.90;;;19.50;58.70;;;;;;4997492;28;20383;-86
2021/10/08 16:49:14;;;;;;;3.00;2.03;;;19.40;58.90;;;;;;5015588;28;20029;-85
2021/10/08 16:51:44;;;;;;;4.00;1.80;;;19.30;59.80;;;;;;4997831;28;20046;-83
2021/10/08 16:54:29;;;;;;;2.30;1.70;;;19.20;59.30;;;;;;5013458;28;20794;-83
2021/10/08 16:57:13;;;;;;;2.50;1.80;;;19.20;60.10;;;;;;4998607;28;20088;-89
2021/10/08 16:59:38;;;;;;;2.33;1.48;;;19.10;60.10;;;;;;5011480;28;20480;-88
2021/10/08 17:02:04;;;;;;;3.50;1.70;;;19.00;60.70;;;;;;4992903;28;20042;-87
2021/10/08 17:04:30;;;;;;;3.13;1.77;;;19.00;61.00;;;;;;5008859;28;22263;-79
2021/10/08 17:07:02;;;;;;;3.88;2.03;;;18.90;61.60;;;;;;4992291;28;20404;-84
2021/10/08 17:09:31;;;;;;;5.07;2.13;;;18.80;61.80;;;;;;4987730;28;20026;-85
2021/10/08 17:11:56;;;;;;;5.63;1.50;;;18.80;61.80;;;;;;4996062;28;20025;-86
2021/10/08 17:14:26;;;;;;;4.63;1.65;;;18.80;62.10;;;;;;4998857;28;20022;-86
2021/10/08 17:17:00;;;;;;;3.63;1.90;;;18.70;62.50;;;;;;5010579;28;20519;-90
2021/10/08 17:19:50;;;;;;;2.45;1.80;;;18.60;62.60;;;;;;4996829;28;20036;-86
2021/10/08 17:22:17;;;;;;;4.10;1.92;;;18.60;62.70;;;;;;4994199;28;20495;-90
2021/10/08 17:24:49;;;;;;;4.80;1.70;;;18.50;63.10;;;;;;5003215;28;20037;-86
2021/10/08 17:27:24;;;;;;;4.43;1.95;;;18.50;63.40;;;;;;5014155;28;20056;-90
2021/10/08 17:35:18;;;;;;;3.47;1.77;;;18.30;64.30;;;;;;5010660;28;20040;-88
2021/10/08 17:37:44;;;;;;;3.90;1.98;;;18.10;64.70;;;;;;5022231;28;20110;-84
2021/10/08 17:40:10;;;;;;;2.70;2.08;;;18.00;65.30;;;;;;5026225;28;20040;-88
2021/10/08 17:42:36;;;;;;;3.47;1.90;;;18.00;65.30;;;;;;5023064;28;20046;-87
2021/10/08 17:45:02;;;;;;;3.22;2.42;;;17.90;66.00;;;;;;5032098;28;20038;-82
2021/10/08 17:47:30;;;;;;;3.20;2.17;;;17.90;66.20;;;;;;5022572;28;20022;-90
2021/10/08 17:50:16;;;;;;;2.67;1.73;;;17.80;66.80;;;;;;5019188;28;20025;-90
2021/10/08 17:52:42;;;;;;;3.05;2.03;;;17.80;66.30;;;;;;5016360;28;20503;-90
2021/10/08 17:55:08;;;;;;;3.05;2.17;;;17.70;66.50;;;;;;5032527;28;20025;-92
2021/10/08 17:57:34;;;;;;;5.68;2.40;;;17.70;66.40;;;;;;5015512;28;20029;-87
2021/10/08 17:59:59;;;;;;;4.55;2.58;;;17.60;66.60;;;;;;5025701;28;20041;-85
2021/10/08 18:02:34;;;;;;;5.45;2.55;;;17.60;66.70;;;;;;5031650;28;20044;-89
2021/10/08 18:05:00;;;;;;;3.33;2.33;;;17.50;66.70;;;;;;5022987;28;20029;-84
2021/10/08 18:07:26;;;;;;;4.05;2.10;;;17.60;66.80;;;;;;5019000;28;20037;-83
2021/10/08 18:09:53;;;;;;;3.47;2.30;;;17.50;66.80;;;;;;5026493;28;20030;-82
2021/10/08 18:12:19;;;;;;;7.53;2.88;;;17.50;66.90;;;;;;5028981;28;20026;-89
2021/10/08 18:14:45;;;;;;;5.68;2.65;;;17.50;67.00;;;;;;5031921;28;20029;-86
2021/10/08 18:17:11;;;;;;;3.80;2.55;;;17.50;67.10;;;;;;5013723;28;20038;-88
2021/10/08 18:19:36;;;;;;;4.03;2.20;;;17.50;67.20;;;;;;5032487;28;20024;-84
2021/10/08 18:22:02;;;;;;;4.63;3.10;;;17.40;67.30;;;;;;5017558;28;20049;-81
2021/10/08 18:24:28;;;;;;;5.53;2.80;;;17.30;67.50;;;;;;5025586;28;20041;-82
2021/10/08 18:26:54;;;;;;;6.57;2.65;;;17.30;67.60;;;;;;5026976;28;20033;-90
2021/10/08 18:29:37;;;;;;;3.60;2.58;;;17.20;67.80;;;;;;5014040;28;20022;-86
2021/10/08 18:32:04;;;;;;;4.40;2.90;;;17.20;68.10;;;;;;5026639;28;20087;-79
2021/10/08 18:34:30;;;;;;;6.50;2.95;;;17.20;68.10;;;;;;5029623;28;20022;-81
2021/10/08 18:36:55;;;;;;;4.63;2.85;;;17.20;68.10;;;;;;5033652;28;20054;-84
2021/10/08 18:39:21;;;;;;;4.53;2.90;;;17.20;68.20;;;;;;5022156;28;20400;-83
2021/10/08 18:41:47;;;;;;;4.63;2.72;;;17.20;68.50;;;;;;5028017;28;20132;-81
2021/10/08 18:44:14;;;;;;;5.22;3.00;;;16.90;68.70;;;;;;5013451;28;20040;-81
2021/10/08 18:46:40;;;;;;;6.43;3.15;;;16.90;68.90;;;;;;5027665;28;20492;-85
2021/10/08 18:49:07;;;;;;;4.60;2.85;;;16.90;68.80;;;;;;5029128;28;20483;-87
2021/10/08 18:51:36;;;;;;;6.05;2.85;;;16.90;69.60;;;;;;5002258;28;20036;-80
2021/10/08 18:54:03;;;;;;;3.92;2.80;;;16.80;69.30;;;;;;5032484;28;20029;-82
2021/10/08 18:56:29;;;;;;;4.93;3.25;;;16.80;69.40;;;;;;5016958;28;20132;-79
2021/10/08 18:58:54;;;;;;;4.75;2.53;;;16.80;69.40;;;;;;5027680;28;20026;-78
2021/10/08 19:01:20;;;;;;;6.63;3.50;;;16.80;69.50;;;;;;5020420;28;20033;-79
2021/10/08 19:03:46;;;;;;;7.70;3.10;;;16.80;69.30;;;;;;5028574;28;20087;-80
2021/10/08 19:06:13;;;;;;;5.10;2.72;;;16.80;69.40;;;;;;5025014;28;20061;-79
2021/10/08 19:08:41;;;;;;;6.68;3.13;;;16.70;69.70;;;;;;5032819;28;20025;-78
2021/10/08 19:11:17;;;;;;;6.35;3.40;;;16.70;69.60;;;;;;5025797;28;20022;-86
2021/10/08 19:16:29;;;;;;;5.72;3.28;;;16.70;69.70;;;;;;5026785;28;20065;-80
2021/10/08 19:19:08;;;;;;;4.72;2.53;;;16.60;70.00;;;;;;5026237;28;20021;-79
2021/10/08 19:21:36;;;;;;;6.40;3.50;;;16.60;70.60;;;;;;5026063;28;20045;-87
2021/10/08 19:24:02;;;;;;;6.97;3.30;;;16.50;70.40;;;;;;5018807;28;20069;-80
2021/10/08 19:26:29;;;;;;;7.03;3.35;;;16.40;70.50;;;;;;5022780;28;20057;-83
2021/10/08 19:28:57;;;;;;;9.55;3.53;;;16.50;70.70;;;;;;5026564;28;20013;-79
2021/10/08 19:31:23;;;;;;;4.55;3.13;;;16.40;70.50;;;;;;5035789;28;20029;-79
2021/10/08 19:33:48;;;;;;;5.40;3.15;;;16.40;70.50;;;;;;5016919;28;20026;-80
2021/10/08 19:36:16;;;;;;;5.30;3.33;;;16.40;70.20;;;;;;5019236;28;20670;-80
2021/10/08 19:38:46;;;;;;;4.97;3.55;;;16.50;70.50;;;;;;5034875;28;20026;-79
2021/10/08 19:41:12;;;;;;;5.28;3.30;;;16.40;70.10;;;;;;5032431;28;20435;-81
2021/10/08 19:43:39;;;;;;;6.28;3.58;;;16.50;70.20;;;;;;5027034;28;20038;-80
2021/10/08 19:48:37;;;;;;;6.05;3.60;;;16.30;70.80;;;;;;5018611;28;20791;-80
2021/10/08 19:51:03;;;;;;;12.02;3.55;;;16.30;71.10;;;;;;5021850;28;20029;-80
2021/10/08 19:53:32;;;;;;;6.13;3.30;;;16.20;71.20;;;;;;5019258;28;20041;-79
2021/10/08 19:55:59;;;;;;;4.47;2.83;;;16.10;71.30;;;;;;5017007;28;20025;-80
2021/10/08 19:58:24;;;;;;;6.13;3.28;;;16.10;71.50;;;;;;5016672;28;20053;-80
2021/10/08 20:03:38;;;;;;;5.90;3.53;;;16.00;71.50;;;;;;5007669;28;20073;-81
2021/10/08 20:14:16;;;;;;;6.18;4.22;;;15.90;72.10;;;;;;5025778;28;20088;-84
2021/10/08 20:16:42;;;;;;;5.30;3.63;;;15.90;71.80;;;;;;5020333;28;20030;-77
2021/10/08 20:19:08;;;;;;;5.97;3.30;;;15.80;71.80;;;;;;5021510;28;20030;-81
2021/10/08 20:21:34;;;;;;;6.68;3.88;;;15.80;71.80;;;;;;5022783;28;20907;-83
2021/10/08 20:24:02;;;;;;;5.75;3.88;;;15.80;71.90;;;;;;5022048;28;20029;-80
2021/10/08 20:26:31;;;;;;;6.97;3.80;;;15.90;71.70;;;;;;5023476;28;20033;-82
2021/10/08 20:28:57;;;;;;;8.07;4.45;;;15.90;71.80;;;;;;5026853;28;20014;-83
2021/10/08 20:31:23;;;;;;;5.95;3.85;;;15.90;71.60;;;;;;5034006;28;20076;-82
2021/10/08 20:33:50;;;;;;;8.82;4.18;;;15.80;71.60;;;;;;5028375;28;20133;-82
2021/10/08 20:36:16;;;;;;;7.03;3.47;;;15.80;72.00;;;;;;5033538;28;20203;-82
2021/10/08 20:38:41;;;;;;;5.53;3.70;;;15.80;72.00;;;;;;5030599;28;20085;-82
2021/10/08 20:41:13;;;;;;;7.03;3.85;;;15.70;72.40;;;;;;5024404;28;20104;-82
2021/10/08 20:43:39;;;;;;;5.53;3.65;;;15.70;72.30;;;;;;5006121;28;20080;-82
2021/10/08 20:46:04;;;;;;;7.20;3.50;;;15.60;72.50;;;;;;5003139;28;20025;-82
2021/10/08 20:48:30;;;;;;;6.53;4.18;;;15.50;72.80;;;;;;5025038;28;20072;-82
2021/10/08 20:50:56;;;;;;;4.65;3.58;;;15.50;73.00;;;;;;5019913;28;20093;-82
2021/10/08 20:53:22;;;;;;;7.15;3.53;;;15.50;73.00;;;;;;5013851;28;20082;-82
2021/10/08 20:55:48;;;;;;;8.48;4.60;;;15.40;73.20;;;;;;5013049;28;20076;-82
2021/10/08 20:58:14;;;;;;;5.47;3.88;;;15.30;73.30;;;;;;5030564;28;20010;-83
2021/10/08 21:00:40;;;;;;;9.48;4.25;;;15.30;73.60;;;;;;5013604;28;20036;-82
2021/10/08 21:03:07;;;;;;;6.15;3.92;;;15.30;73.60;;;;;;5027532;28;20672;-83
2021/10/08 21:05:33;;;;;;;5.85;3.83;;;15.20;73.50;;;;;;5009370;28;20025;-83
2021/10/08 21:07:59;;;;;;;10.63;5.00;;;15.20;73.70;;;;;;5025537;28;20030;-82
2021/10/08 21:10:29;;;;;;;7.72;4.93;;;15.10;73.70;;;;;;5030429;28;20018;-82
2021/10/08 21:12:56;;;;;;;7.47;4.93;;;15.10;73.90;;;;;;5015719;28;20125;-83
2021/10/08 21:15:28;;;;;;;5.30;4.68;;;15.00;74.00;;;;;;5016838;28;20125;-82
2021/10/08 21:17:55;;;;;;;5.95;3.80;;;15.00;74.10;;;;;;5018048;28;20053;-82
2021/10/08 21:20:20;;;;;;;6.50;3.75;;;14.90;74.00;;;;;;5025959;28;20034;-82
2021/10/08 21:22:46;;;;;;;7.40;4.70;;;14.90;74.40;;;;;;5023756;28;20108;-81
2021/10/08 21:25:12;;;;;;;6.80;4.50;;;14.90;74.50;;;;;;5025715;28;20376;-82
2021/10/08 21:27:38;;;;;;;8.23;4.38;;;14.80;74.80;;;;;;5025282;28;20499;-82
2021/10/08 21:30:06;;;;;;;7.80;5.20;;;14.80;74.70;;;;;;5023802;28;20032;-82
2021/10/08 21:32:32;;;;;;;6.90;4.25;;;14.80;74.70;;;;;;5025539;28;20033;-82
2021/10/08 21:34:58;;;;;;;7.85;4.32;;;14.70;74.60;;;;;;5025149;28;20030;-82
2021/10/08 21:37:37;;;;;;;7.80;4.32;;;14.70;75.00;;;;;;5023541;28;20504;-82
2021/10/08 21:45:17;;;;;;;6.50;4.05;;;14.60;74.80;;;;;;5025206;28;20565;-82
2021/10/08 21:47:43;;;;;;;7.63;4.43;;;14.60;75.30;;;;;;5005491;28;20309;-81
2021/10/08 21:50:10;;;;;;;6.90;4.47;;;14.50;75.30;;;;;;5024750;28;20022;-82
2021/10/08 21:52:36;;;;;;;6.32;4.53;;;14.50;75.10;;;;;;5021657;28;20472;-82
2021/10/08 21:55:03;;;;;;;8.07;4.30;;;14.50;75.20;;;;;;5015078;28;20561;-82
2021/10/08 21:57:29;;;;;;;9.70;4.38;;;14.50;75.10;;;;;;5000471;28;20029;-82
2021/10/08 21:59:55;;;;;;;9.65;4.85;;;14.50;74.80;;;;;;5000480;28;20030;-82
2021/10/08 22:02:20;;;;;;;6.45;4.05;;;14.60;74.70;;;;;;5018725;28;20030;-82
2021/10/08 22:04:46;;;;;;;7.55;4.10;;;14.50;74.70;;;;;;5018857;28;20041;-82
2021/10/08 22:07:12;;;;;;;7.32;4.50;;;14.50;74.80;;;;;;5018731;28;20026;-82
2021/10/08 22:09:38;;;;;;;8.48;4.70;;;14.50;74.90;;;;;;5018752;28;20030;-82
2021/10/08 22:12:04;;;;;;;6.28;4.38;;;14.30;75.00;;;;;;5018930;28;20026;-82
2021/10/08 22:14:29;;;;;;;8.40;4.82;;;14.30;75.20;;;;;;5018934;28;20089;-82
2021/10/08 22:16:55;;;;;;;7.03;4.00;;;14.30;75.40;;;;;;5000852;28;20037;-82
2021/10/08 22:19:25;;;;;;;8.00;4.45;;;14.30;75.30;;;;;;5018490;28;20032;-81
2021/10/08 22:21:52;;;;;;;7.00;3.88;;;14.30;75.40;;;;;;5018627;28;20029;-82
2021/10/08 22:27:24;;;;;;;7.68;5.07;;;14.30;75.30;;;;;;5038409;28;20476;-82
2021/10/08 22:35:18;;;;;;;9.38;4.72;;;14.20;75.10;;;;;;5018311;28;20037;-82
2021/10/08 22:37:44;;;;;;;8.80;4.22;;;14.20;75.50;;;;;;5018071;28;20041;-82
2021/10/08 22:40:10;;;;;;;7.60;4.55;;;14.10;75.20;;;;;;5018258;28;20038;-82
2021/10/08 22:42:36;;;;;;;8.15;5.05;;;14.00;75.30;;;;;;5019010;28;20096;-82
2021/10/08 22:45:03;;;;;;;6.68;4.45;;;13.90;75.60;;;;;;5037762;28;20025;-82
2021/10/08 22:47:29;;;;;;;10.20;4.47;;;13.90;75.80;;;;;;5027090;28;20068;-82
2021/10/08 22:49:55;;;;;;;7.13;4.47;;;13.80;76.00;;;;;;5018025;28;20022;-82
2021/10/08 22:52:21;;;;;;;7.80;4.28;;;13.80;75.90;;;;;;5017941;28;20018;-81
2021/10/08 22:54:46;;;;;;;8.75;4.53;;;13.80;76.00;;;;;;5017728;28;20500;-82
2021/10/08 22:57:12;;;;;;;7.88;4.10;;;13.80;76.00;;;;;;5017721;28;20057;-82
2021/10/08 22:59:38;;;;;;;7.15;4.53;;;13.80;75.90;;;;;;5017504;28;20108;-82
2021/10/08 23:02:04;;;;;;;8.85;5.18;;;13.90;75.70;;;;;;5030163;28;20029;-82